sensor_id;sensor_type;location;lat;lon;timestamp;P1;durP1;ratioP1;P2;durP2;ratioP2
25231;SDS011;13176;51.140;6.290;2022-12-07T00:01:31;67.38;;;61.97;;
25231;SDS011;13176;51.140;6.290;2022-12-07T00:03:59;74.15;;;68.60;;
25231;SDS011;13176;51.140;6.290;2022-12-07T00:06:40;70.07;;;64.85;;
25231;SDS011;13176;51.140;6.290;2022-12-07T00:09:10;71.63;;;66.47;;
25231;SDS011;13176;51.140;6.290;2022-12-07T00:11:38;73.47;;;68.22;;
25231;SDS011;13176;51.140;6.290;2022-12-07T00:14:06;72.25;;;67.15;;
25231;SDS011;13176;51.140;6.290;2022-12-07T00:16:36;72.53;;;67.45;;
25231;SDS011;13176;51.140;6.290;2022-12-07T00:19:03;74.88;;;69.20;;
25231;SDS011;13176;51.140;6.290;2022-12-07T00:21:34;72.93;;;67.55;;
25231;SDS011;13176;51.140;6.290;2022-12-07T00:24:02;69.38;;;64.30;;
25231;SDS011;13176;51.140;6.290;2022-12-07T00:26:34;70.50;;;65.20;;
25231;SDS011;13176;51.140;6.290;2022-12-07T00:29:03;71.78;;;66.50;;
25231;SDS011;13176;51.140;6.290;2022-12-07T00:31:42;72.40;;;67.10;;
25231;SDS011;13176;51.140;6.290;2022-12-07T00:34:11;71.22;;;66.25;;
25231;SDS011;13176;51.140;6.290;2022-12-07T00:36:40;67.80;;;62.83;;
25231;SDS011;13176;51.140;6.290;2022-12-07T00:39:06;68.22;;;63.35;;
25231;SDS011;13176;51.140;6.290;2022-12-07T00:41:33;67.22;;;62.42;;
25231;SDS011;13176;51.140;6.290;2022-12-07T00:43:59;69.55;;;64.50;;
25231;SDS011;13176;51.140;6.290;2022-12-07T00:46:26;68.03;;;63.22;;
25231;SDS011;13176;51.140;6.290;2022-12-07T00:48:52;64.82;;;59.88;;
25231;SDS011;13176;51.140;6.290;2022-12-07T00:51:21;67.53;;;62.63;;
25231;SDS011;13176;51.140;6.290;2022-12-07T00:53:49;69.63;;;64.68;;
25231;SDS011;13176;51.140;6.290;2022-12-07T00:56:17;70.68;;;65.80;;
25231;SDS011;13176;51.140;6.290;2022-12-07T00:58:55;72.65;;;67.70;;
25231;SDS011;13176;51.140;6.290;2022-12-07T01:01:27;73.28;;;68.25;;
25231;SDS011;13176;51.140;6.290;2022-12-07T01:03:55;69.75;;;64.70;;
25231;SDS011;13176;51.140;6.290;2022-12-07T01:06:22;67.80;;;63.20;;
25231;SDS011;13176;51.140;6.290;2022-12-07T01:08:50;68.55;;;63.70;;
25231;SDS011;13176;51.140;6.290;2022-12-07T01:11:17;71.25;;;66.38;;
25231;SDS011;13176;51.140;6.290;2022-12-07T01:13:45;67.47;;;62.88;;
25231;SDS011;13176;51.140;6.290;2022-12-07T01:16:13;69.93;;;64.90;;
25231;SDS011;13176;51.140;6.290;2022-12-07T01:18:41;71.45;;;66.30;;
25231;SDS011;13176;51.140;6.290;2022-12-07T01:21:13;71.28;;;65.95;;
25231;SDS011;13176;51.140;6.290;2022-12-07T01:23:41;68.18;;;63.35;;
25231;SDS011;13176;51.140;6.290;2022-12-07T01:26:10;73.32;;;67.93;;
25231;SDS011;13176;51.140;6.290;2022-12-07T01:28:38;68.95;;;63.90;;
25231;SDS011;13176;51.140;6.290;2022-12-07T01:31:23;74.40;;;68.50;;
25231;SDS011;13176;51.140;6.290;2022-12-07T01:33:52;73.72;;;68.30;;
25231;SDS011;13176;51.140;6.290;2022-12-07T01:36:22;69.82;;;64.35;;
25231;SDS011;13176;51.140;6.290;2022-12-07T01:38:50;70.72;;;65.07;;
25231;SDS011;13176;51.140;6.290;2022-12-07T01:41:19;74.95;;;68.88;;
25231;SDS011;13176;51.140;6.290;2022-12-07T01:49:36;77.07;;;71.18;;
25231;SDS011;13176;51.140;6.290;2022-12-07T01:52:15;72.60;;;66.53;;
25231;SDS011;13176;51.140;6.290;2022-12-07T01:54:49;78.75;;;72.65;;
25231;SDS011;13176;51.140;6.290;2022-12-07T01:57:19;74.40;;;68.55;;
25231;SDS011;13176;51.140;6.290;2022-12-07T01:59:47;77.28;;;71.53;;
25231;SDS011;13176;51.140;6.290;2022-12-07T02:02:20;75.38;;;69.63;;
25231;SDS011;13176;51.140;6.290;2022-12-07T02:04:54;72.90;;;67.15;;
25231;SDS011;13176;51.140;6.290;2022-12-07T02:07:23;79.22;;;72.57;;
25231;SDS011;13176;51.140;6.290;2022-12-07T02:09:49;76.75;;;70.95;;
25231;SDS011;13176;51.140;6.290;2022-12-07T02:12:16;73.13;;;67.38;;
25231;SDS011;13176;51.140;6.290;2022-12-07T02:14:43;74.65;;;69.07;;
25231;SDS011;13176;51.140;6.290;2022-12-07T02:17:19;79.03;;;72.68;;
25231;SDS011;13176;51.140;6.290;2022-12-07T02:25:30;76.80;;;70.70;;
25231;SDS011;13176;51.140;6.290;2022-12-07T02:30:58;76.53;;;70.22;;
25231;SDS011;13176;51.140;6.290;2022-12-07T02:33:37;83.57;;;76.93;;
25231;SDS011;13176;51.140;6.290;2022-12-07T02:36:22;74.57;;;68.57;;
25231;SDS011;13176;51.140;6.290;2022-12-07T02:41:43;80.45;;;73.85;;
25231;SDS011;13176;51.140;6.290;2022-12-07T02:44:13;82.97;;;76.03;;
25231;SDS011;13176;51.140;6.290;2022-12-07T02:46:44;88.18;;;80.88;;
25231;SDS011;13176;51.140;6.290;2022-12-07T02:49:17;88.67;;;81.60;;
25231;SDS011;13176;51.140;6.290;2022-12-07T02:51:45;85.15;;;78.40;;
25231;SDS011;13176;51.140;6.290;2022-12-07T02:54:13;86.63;;;79.07;;
25231;SDS011;13176;51.140;6.290;2022-12-07T03:13:17;88.65;;;81.13;;
25231;SDS011;13176;51.140;6.290;2022-12-07T03:18:48;88.40;;;81.03;;
25231;SDS011;13176;51.140;6.290;2022-12-07T03:21:25;88.88;;;81.53;;
25231;SDS011;13176;51.140;6.290;2022-12-07T03:23:58;85.07;;;78.15;;
25231;SDS011;13176;51.140;6.290;2022-12-07T03:26:34;81.57;;;74.95;;
25231;SDS011;13176;51.140;6.290;2022-12-07T03:29:05;91.00;;;84.03;;
25231;SDS011;13176;51.140;6.290;2022-12-07T03:31:39;84.88;;;78.18;;
25231;SDS011;13176;51.140;6.290;2022-12-07T03:42:07;83.07;;;76.63;;
25231;SDS011;13176;51.140;6.290;2022-12-07T03:44:36;76.47;;;70.57;;
25231;SDS011;13176;51.140;6.290;2022-12-07T03:47:18;79.93;;;73.68;;
25231;SDS011;13176;51.140;6.290;2022-12-07T03:49:55;78.22;;;71.75;;
25231;SDS011;13176;51.140;6.290;2022-12-07T03:52:32;82.53;;;76.32;;
25231;SDS011;13176;51.140;6.290;2022-12-07T03:55:13;73.30;;;67.80;;
25231;SDS011;13176;51.140;6.290;2022-12-07T03:57:46;76.88;;;70.85;;
25231;SDS011;13176;51.140;6.290;2022-12-07T04:00:15;74.82;;;69.38;;
25231;SDS011;13176;51.140;6.290;2022-12-07T04:02:42;74.43;;;68.80;;
25231;SDS011;13176;51.140;6.290;2022-12-07T04:05:09;72.20;;;66.82;;
25231;SDS011;13176;51.140;6.290;2022-12-07T04:07:36;72.55;;;66.95;;
25231;SDS011;13176;51.140;6.290;2022-12-07T04:10:03;75.50;;;69.78;;
25231;SDS011;13176;51.140;6.290;2022-12-07T04:12:31;73.63;;;68.13;;
25231;SDS011;13176;51.140;6.290;2022-12-07T04:14:57;73.03;;;67.20;;
25231;SDS011;13176;51.140;6.290;2022-12-07T04:17:23;73.18;;;67.50;;
25231;SDS011;13176;51.140;6.290;2022-12-07T04:19:50;71.00;;;65.75;;
25231;SDS011;13176;51.140;6.290;2022-12-07T04:22:16;72.40;;;66.85;;
25231;SDS011;13176;51.140;6.290;2022-12-07T04:24:43;70.80;;;65.07;;
25231;SDS011;13176;51.140;6.290;2022-12-07T04:27:09;71.05;;;65.38;;
25231;SDS011;13176;51.140;6.290;2022-12-07T04:29:36;73.22;;;67.32;;
25231;SDS011;13176;51.140;6.290;2022-12-07T04:32:02;72.68;;;66.93;;
25231;SDS011;13176;51.140;6.290;2022-12-07T04:34:29;74.20;;;68.22;;
25231;SDS011;13176;51.140;6.290;2022-12-07T04:36:55;75.35;;;69.28;;
25231;SDS011;13176;51.140;6.290;2022-12-07T04:39:23;77.57;;;71.72;;
25231;SDS011;13176;51.140;6.290;2022-12-07T04:41:55;78.72;;;72.82;;
25231;SDS011;13176;51.140;6.290;2022-12-07T04:44:22;79.50;;;73.28;;
25231;SDS011;13176;51.140;6.290;2022-12-07T04:46:49;81.80;;;74.75;;
25231;SDS011;13176;51.140;6.290;2022-12-07T04:49:16;80.93;;;75.05;;
25231;SDS011;13176;51.140;6.290;2022-12-07T04:51:43;79.03;;;73.18;;
25231;SDS011;13176;51.140;6.290;2022-12-07T04:54:11;79.93;;;73.75;;
25231;SDS011;13176;51.140;6.290;2022-12-07T04:56:38;79.70;;;73.68;;
25231;SDS011;13176;51.140;6.290;2022-12-07T04:59:05;78.90;;;72.90;;
25231;SDS011;13176;51.140;6.290;2022-12-07T05:01:32;77.38;;;71.50;;
25231;SDS011;13176;51.140;6.290;2022-12-07T05:03:59;77.88;;;72.00;;
25231;SDS011;13176;51.140;6.290;2022-12-07T05:06:26;79.68;;;72.88;;
25231;SDS011;13176;51.140;6.290;2022-12-07T05:08:54;79.13;;;73.30;;
25231;SDS011;13176;51.140;6.290;2022-12-07T05:11:21;77.10;;;71.43;;
25231;SDS011;13176;51.140;6.290;2022-12-07T05:14:17;69.78;;;64.32;;
25231;SDS011;13176;51.140;6.290;2022-12-07T05:16:46;72.45;;;66.90;;
25231;SDS011;13176;51.140;6.290;2022-12-07T05:19:15;75.82;;;69.80;;
25231;SDS011;13176;51.140;6.290;2022-12-07T05:21:42;74.22;;;68.47;;
25231;SDS011;13176;51.140;6.290;2022-12-07T05:24:09;72.90;;;67.45;;
25231;SDS011;13176;51.140;6.290;2022-12-07T05:26:38;74.72;;;69.28;;
25231;SDS011;13176;51.140;6.290;2022-12-07T05:29:05;69.30;;;64.43;;
25231;SDS011;13176;51.140;6.290;2022-12-07T05:31:31;72.35;;;67.10;;
25231;SDS011;13176;51.140;6.290;2022-12-07T05:34:01;74.50;;;68.85;;
25231;SDS011;13176;51.140;6.290;2022-12-07T05:36:35;72.80;;;67.70;;
25231;SDS011;13176;51.140;6.290;2022-12-07T05:39:02;71.60;;;66.38;;
25231;SDS011;13176;51.140;6.290;2022-12-07T05:41:28;69.55;;;64.75;;
25231;SDS011;13176;51.140;6.290;2022-12-07T05:44:14;66.18;;;61.65;;
25231;SDS011;13176;51.140;6.290;2022-12-07T05:46:40;68.88;;;63.55;;
25231;SDS011;13176;51.140;6.290;2022-12-07T05:49:06;65.40;;;60.90;;
25231;SDS011;13176;51.140;6.290;2022-12-07T05:51:33;67.85;;;63.03;;
25231;SDS011;13176;51.140;6.290;2022-12-07T05:53:59;67.18;;;62.42;;
25231;SDS011;13176;51.140;6.290;2022-12-07T05:56:26;64.90;;;60.50;;
25231;SDS011;13176;51.140;6.290;2022-12-07T05:58:53;65.15;;;60.40;;
25231;SDS011;13176;51.140;6.290;2022-12-07T06:01:38;63.00;;;58.63;;
25231;SDS011;13176;51.140;6.290;2022-12-07T06:04:05;64.65;;;60.05;;
25231;SDS011;13176;51.140;6.290;2022-12-07T06:06:31;62.33;;;58.03;;
25231;SDS011;13176;51.140;6.290;2022-12-07T06:08:58;65.72;;;61.08;;
25231;SDS011;13176;51.140;6.290;2022-12-07T06:11:24;63.30;;;58.83;;
25231;SDS011;13176;51.140;6.290;2022-12-07T06:14:09;61.67;;;57.05;;
25231;SDS011;13176;51.140;6.290;2022-12-07T06:16:35;59.83;;;55.67;;
25231;SDS011;13176;51.140;6.290;2022-12-07T06:19:02;67.20;;;61.97;;
25231;SDS011;13176;51.140;6.290;2022-12-07T06:21:28;59.53;;;55.38;;
25231;SDS011;13176;51.140;6.290;2022-12-07T06:23:54;59.03;;;54.63;;
25231;SDS011;13176;51.140;6.290;2022-12-07T06:26:21;61.20;;;57.08;;
25231;SDS011;13176;51.140;6.290;2022-12-07T06:28:47;61.33;;;56.90;;
25231;SDS011;13176;51.140;6.290;2022-12-07T06:31:14;56.45;;;52.15;;
25231;SDS011;13176;51.140;6.290;2022-12-07T06:33:40;60.72;;;56.53;;
25231;SDS011;13176;51.140;6.290;2022-12-07T06:36:08;60.80;;;56.42;;
25231;SDS011;13176;51.140;6.290;2022-12-07T06:38:35;61.10;;;56.58;;
25231;SDS011;13176;51.140;6.290;2022-12-07T06:41:01;59.75;;;55.42;;
25231;SDS011;13176;51.140;6.290;2022-12-07T06:43:28;62.85;;;58.38;;
25231;SDS011;13176;51.140;6.290;2022-12-07T06:45:55;63.72;;;59.10;;
25231;SDS011;13176;51.140;6.290;2022-12-07T06:48:21;66.07;;;61.33;;
25231;SDS011;13176;51.140;6.290;2022-12-07T06:50:48;63.20;;;58.70;;
25231;SDS011;13176;51.140;6.290;2022-12-07T06:53:20;69.03;;;64.07;;
25231;SDS011;13176;51.140;6.290;2022-12-07T06:55:46;63.63;;;59.20;;
25231;SDS011;13176;51.140;6.290;2022-12-07T06:58:12;66.00;;;61.28;;
25231;SDS011;13176;51.140;6.290;2022-12-07T07:00:39;64.38;;;59.72;;
25231;SDS011;13176;51.140;6.290;2022-12-07T07:03:05;62.63;;;57.97;;
25231;SDS011;13176;51.140;6.290;2022-12-07T07:05:31;62.17;;;57.65;;
25231;SDS011;13176;51.140;6.290;2022-12-07T07:07:58;63.95;;;59.30;;
25231;SDS011;13176;51.140;6.290;2022-12-07T07:10:44;64.20;;;59.22;;
25231;SDS011;13176;51.140;6.290;2022-12-07T07:13:10;64.00;;;59.22;;
25231;SDS011;13176;51.140;6.290;2022-12-07T07:15:37;64.65;;;59.80;;
25231;SDS011;13176;51.140;6.290;2022-12-07T07:18:04;70.90;;;65.43;;
25231;SDS011;13176;51.140;6.290;2022-12-07T07:20:33;68.18;;;63.42;;
25231;SDS011;13176;51.140;6.290;2022-12-07T07:22:59;70.75;;;65.90;;
25231;SDS011;13176;51.140;6.290;2022-12-07T07:25:26;78.07;;;72.32;;
25231;SDS011;13176;51.140;6.290;2022-12-07T07:27:52;77.00;;;71.55;;
25231;SDS011;13176;51.140;6.290;2022-12-07T07:30:18;76.50;;;71.03;;
25231;SDS011;13176;51.140;6.290;2022-12-07T07:32:45;77.22;;;71.75;;
25231;SDS011;13176;51.140;6.290;2022-12-07T07:35:12;78.28;;;72.90;;
25231;SDS011;13176;51.140;6.290;2022-12-07T07:37:40;77.90;;;72.38;;
25231;SDS011;13176;51.140;6.290;2022-12-07T07:40:07;77.95;;;72.38;;
25231;SDS011;13176;51.140;6.290;2022-12-07T07:42:34;80.90;;;75.05;;
25231;SDS011;13176;51.140;6.290;2022-12-07T07:45:01;79.90;;;74.07;;
25231;SDS011;13176;51.140;6.290;2022-12-07T07:47:27;82.05;;;75.88;;
25231;SDS011;13176;51.140;6.290;2022-12-07T07:49:55;82.68;;;76.57;;
25231;SDS011;13176;51.140;6.290;2022-12-07T07:52:21;80.80;;;74.55;;
25231;SDS011;13176;51.140;6.290;2022-12-07T07:54:47;83.82;;;77.78;;
25231;SDS011;13176;51.140;6.290;2022-12-07T07:57:14;82.05;;;76.18;;
25231;SDS011;13176;51.140;6.290;2022-12-07T07:59:42;83.80;;;77.60;;
25231;SDS011;13176;51.140;6.290;2022-12-07T08:02:12;83.68;;;77.53;;
25231;SDS011;13176;51.140;6.290;2022-12-07T08:04:40;82.50;;;76.57;;
25231;SDS011;13176;51.140;6.290;2022-12-07T08:07:07;81.43;;;75.28;;
25231;SDS011;13176;51.140;6.290;2022-12-07T08:09:33;77.25;;;71.75;;
25231;SDS011;13176;51.140;6.290;2022-12-07T08:11:59;78.43;;;73.10;;
25231;SDS011;13176;51.140;6.290;2022-12-07T08:14:26;83.38;;;77.25;;
25231;SDS011;13176;51.140;6.290;2022-12-07T08:16:54;81.20;;;74.78;;
25231;SDS011;13176;51.140;6.290;2022-12-07T08:19:21;72.78;;;67.55;;
25231;SDS011;13176;51.140;6.290;2022-12-07T08:21:47;79.32;;;73.90;;
25231;SDS011;13176;51.140;6.290;2022-12-07T08:24:14;77.45;;;71.45;;
25231;SDS011;13176;51.140;6.290;2022-12-07T08:26:41;75.65;;;69.65;;
25231;SDS011;13176;51.140;6.290;2022-12-07T08:29:08;77.85;;;72.28;;
25231;SDS011;13176;51.140;6.290;2022-12-07T08:31:35;79.60;;;73.40;;
25231;SDS011;13176;51.140;6.290;2022-12-07T08:34:02;79.53;;;73.72;;
25231;SDS011;13176;51.140;6.290;2022-12-07T08:36:28;78.47;;;72.95;;
25231;SDS011;13176;51.140;6.290;2022-12-07T08:38:55;78.40;;;72.60;;
25231;SDS011;13176;51.140;6.290;2022-12-07T08:41:41;76.00;;;69.95;;
25231;SDS011;13176;51.140;6.290;2022-12-07T08:44:07;75.43;;;69.78;;
25231;SDS011;13176;51.140;6.290;2022-12-07T08:46:42;74.50;;;69.13;;
25231;SDS011;13176;51.140;6.290;2022-12-07T08:49:13;75.25;;;69.70;;
25231;SDS011;13176;51.140;6.290;2022-12-07T08:51:43;74.63;;;68.93;;
25231;SDS011;13176;51.140;6.290;2022-12-07T08:54:11;78.72;;;72.82;;
25231;SDS011;13176;51.140;6.290;2022-12-07T08:56:41;77.95;;;71.95;;
25231;SDS011;13176;51.140;6.290;2022-12-07T08:59:08;74.80;;;69.40;;
25231;SDS011;13176;51.140;6.290;2022-12-07T09:01:36;74.32;;;69.18;;
25231;SDS011;13176;51.140;6.290;2022-12-07T09:04:02;72.30;;;66.80;;
25231;SDS011;13176;51.140;6.290;2022-12-07T09:06:28;66.63;;;61.45;;
25231;SDS011;13176;51.140;6.290;2022-12-07T09:08:56;69.60;;;64.53;;
25231;SDS011;13176;51.140;6.290;2022-12-07T09:11:25;75.82;;;70.45;;
25231;SDS011;13176;51.140;6.290;2022-12-07T09:13:54;72.70;;;67.18;;
25231;SDS011;13176;51.140;6.290;2022-12-07T09:16:20;68.07;;;63.05;;
25231;SDS011;13176;51.140;6.290;2022-12-07T09:18:47;70.63;;;65.60;;
25231;SDS011;13176;51.140;6.290;2022-12-07T09:21:13;76.15;;;70.85;;
25231;SDS011;13176;51.140;6.290;2022-12-07T09:23:41;71.45;;;66.05;;
25231;SDS011;13176;51.140;6.290;2022-12-07T09:26:08;67.53;;;62.63;;
25231;SDS011;13176;51.140;6.290;2022-12-07T09:28:36;69.18;;;64.07;;
25231;SDS011;13176;51.140;6.290;2022-12-07T09:31:04;66.65;;;61.55;;
25231;SDS011;13176;51.140;6.290;2022-12-07T09:33:56;68.97;;;64.00;;
25231;SDS011;13176;51.140;6.290;2022-12-07T09:36:25;70.18;;;65.00;;
25231;SDS011;13176;51.140;6.290;2022-12-07T09:38:52;70.13;;;65.03;;
25231;SDS011;13176;51.140;6.290;2022-12-07T09:41:19;74.45;;;68.97;;
25231;SDS011;13176;51.140;6.290;2022-12-07T09:43:46;69.60;;;64.25;;
25231;SDS011;13176;51.140;6.290;2022-12-07T09:46:14;65.80;;;61.13;;
25231;SDS011;13176;51.140;6.290;2022-12-07T09:48:43;65.70;;;60.97;;
25231;SDS011;13176;51.140;6.290;2022-12-07T09:51:14;67.28;;;62.33;;
25231;SDS011;13176;51.140;6.290;2022-12-07T09:53:49;62.00;;;57.50;;
25231;SDS011;13176;51.140;6.290;2022-12-07T09:56:16;61.08;;;56.83;;
25231;SDS011;13176;51.140;6.290;2022-12-07T09:58:44;58.60;;;54.33;;
25231;SDS011;13176;51.140;6.290;2022-12-07T10:01:16;55.78;;;51.22;;
25231;SDS011;13176;51.140;6.290;2022-12-07T10:03:52;54.58;;;50.53;;
25231;SDS011;13176;51.140;6.290;2022-12-07T10:06:26;59.55;;;55.25;;
25231;SDS011;13176;51.140;6.290;2022-12-07T10:08:53;57.83;;;53.70;;
25231;SDS011;13176;51.140;6.290;2022-12-07T10:11:19;69.28;;;63.80;;
25231;SDS011;13176;51.140;6.290;2022-12-07T10:13:47;67.03;;;62.47;;
25231;SDS011;13176;51.140;6.290;2022-12-07T10:18:54;62.13;;;57.65;;
25231;SDS011;13176;51.140;6.290;2022-12-07T10:21:24;59.17;;;54.40;;
25231;SDS011;13176;51.140;6.290;2022-12-07T10:23:59;55.35;;;51.03;;
25231;SDS011;13176;51.140;6.290;2022-12-07T10:26:29;54.83;;;50.50;;
25231;SDS011;13176;51.140;6.290;2022-12-07T10:28:56;54.20;;;50.50;;
25231;SDS011;13176;51.140;6.290;2022-12-07T10:31:25;52.25;;;48.13;;
25231;SDS011;13176;51.140;6.290;2022-12-07T10:33:52;53.00;;;49.20;;
25231;SDS011;13176;51.140;6.290;2022-12-07T10:36:40;46.35;;;42.70;;
25231;SDS011;13176;51.140;6.290;2022-12-07T10:39:13;42.97;;;39.70;;
25231;SDS011;13176;51.140;6.290;2022-12-07T10:44:22;31.33;;;28.15;;
25231;SDS011;13176;51.140;6.290;2022-12-07T10:49:45;28.10;;;25.67;;
25231;SDS011;13176;51.140;6.290;2022-12-07T10:52:24;30.98;;;27.95;;
25231;SDS011;13176;51.140;6.290;2022-12-07T10:55:01;29.15;;;26.55;;
25231;SDS011;13176;51.140;6.290;2022-12-07T11:00:59;28.60;;;26.17;;
25231;SDS011;13176;51.140;6.290;2022-12-07T11:06:24;29.17;;;26.20;;
25231;SDS011;13176;51.140;6.290;2022-12-07T11:15:22;23.10;;;20.90;;
25231;SDS011;13176;51.140;6.290;2022-12-07T11:18:06;23.17;;;20.88;;
25231;SDS011;13176;51.140;6.290;2022-12-07T11:38:12;17.67;;;16.15;;
25231;SDS011;13176;51.140;6.290;2022-12-07T11:40:53;19.20;;;17.20;;
25231;SDS011;13176;51.140;6.290;2022-12-07T11:46:26;17.52;;;15.73;;
25231;SDS011;13176;51.140;6.290;2022-12-07T11:51:47;18.10;;;16.40;;
25231;SDS011;13176;51.140;6.290;2022-12-07T11:54:18;18.52;;;16.75;;
25231;SDS011;13176;51.140;6.290;2022-12-07T11:56:48;18.00;;;16.40;;
25231;SDS011;13176;51.140;6.290;2022-12-07T11:59:31;18.65;;;17.02;;
25231;SDS011;13176;51.140;6.290;2022-12-07T12:02:14;19.42;;;17.55;;
25231;SDS011;13176;51.140;6.290;2022-12-07T12:04:56;19.48;;;16.88;;
25231;SDS011;13176;51.140;6.290;2022-12-07T12:07:44;19.45;;;17.52;;
25231;SDS011;13176;51.140;6.290;2022-12-07T12:16:58;18.13;;;16.63;;
25231;SDS011;13176;51.140;6.290;2022-12-07T12:22:50;17.20;;;15.60;;
25231;SDS011;13176;51.140;6.290;2022-12-07T12:27:52;17.48;;;15.77;;
25231;SDS011;13176;51.140;6.290;2022-12-07T12:30:35;18.70;;;16.98;;
25231;SDS011;13176;51.140;6.290;2022-12-07T12:33:05;19.50;;;17.65;;
25231;SDS011;13176;51.140;6.290;2022-12-07T12:51:43;20.23;;;18.52;;
25231;SDS011;13176;51.140;6.290;2022-12-07T12:54:23;19.40;;;17.48;;
25231;SDS011;13176;51.140;6.290;2022-12-07T12:56:57;17.77;;;16.00;;
25231;SDS011;13176;51.140;6.290;2022-12-07T12:59:36;21.30;;;19.33;;
25231;SDS011;13176;51.140;6.290;2022-12-07T13:15:55;20.55;;;18.92;;
25231;SDS011;13176;51.140;6.290;2022-12-07T13:18:41;19.55;;;18.17;;
25231;SDS011;13176;51.140;6.290;2022-12-07T13:34:01;17.65;;;15.95;;
25231;SDS011;13176;51.140;6.290;2022-12-07T13:36:33;16.95;;;15.68;;
25231;SDS011;13176;51.140;6.290;2022-12-07T13:39:23;17.15;;;15.85;;
25231;SDS011;13176;51.140;6.290;2022-12-07T13:41:52;18.48;;;16.88;;
25231;SDS011;13176;51.140;6.290;2022-12-07T13:44:21;16.95;;;15.65;;
25231;SDS011;13176;51.140;6.290;2022-12-07T13:46:57;20.38;;;18.40;;
25231;SDS011;13176;51.140;6.290;2022-12-07T13:49:31;21.25;;;19.40;;
25231;SDS011;13176;51.140;6.290;2022-12-07T13:52:18;19.45;;;17.92;;
25231;SDS011;13176;51.140;6.290;2022-12-07T13:54:48;21.38;;;19.75;;
25231;SDS011;13176;51.140;6.290;2022-12-07T13:57:21;20.67;;;19.17;;
25231;SDS011;13176;51.140;6.290;2022-12-07T13:59:50;21.25;;;19.50;;
25231;SDS011;13176;51.140;6.290;2022-12-07T14:02:35;21.80;;;20.23;;
25231;SDS011;13176;51.140;6.290;2022-12-07T14:12:52;14.20;;;12.88;;
25231;SDS011;13176;51.140;6.290;2022-12-07T14:15:20;15.07;;;13.80;;
25231;SDS011;13176;51.140;6.290;2022-12-07T14:17:53;17.73;;;16.27;;
25231;SDS011;13176;51.140;6.290;2022-12-07T14:20:40;20.70;;;18.92;;
25231;SDS011;13176;51.140;6.290;2022-12-07T14:23:21;21.77;;;20.05;;
25231;SDS011;13176;51.140;6.290;2022-12-07T14:25:52;22.77;;;21.08;;
25231;SDS011;13176;51.140;6.290;2022-12-07T14:28:26;23.05;;;21.35;;
25231;SDS011;13176;51.140;6.290;2022-12-07T14:30:54;24.90;;;23.00;;
25231;SDS011;13176;51.140;6.290;2022-12-07T14:33:21;28.92;;;26.65;;
25231;SDS011;13176;51.140;6.290;2022-12-07T14:35:49;32.88;;;30.58;;
25231;SDS011;13176;51.140;6.290;2022-12-07T14:38:15;34.85;;;32.40;;
25231;SDS011;13176;51.140;6.290;2022-12-07T14:40:44;38.85;;;36.03;;
25231;SDS011;13176;51.140;6.290;2022-12-07T14:43:12;42.55;;;39.28;;
25231;SDS011;13176;51.140;6.290;2022-12-07T14:45:41;42.08;;;39.38;;
25231;SDS011;13176;51.140;6.290;2022-12-07T14:48:10;43.35;;;40.22;;
25231;SDS011;13176;51.140;6.290;2022-12-07T14:50:58;45.67;;;42.83;;
25231;SDS011;13176;51.140;6.290;2022-12-07T14:53:46;46.65;;;43.13;;
25231;SDS011;13176;51.140;6.290;2022-12-07T14:56:22;48.30;;;45.22;;
25231;SDS011;13176;51.140;6.290;2022-12-07T14:58:49;49.53;;;46.08;;
25231;SDS011;13176;51.140;6.290;2022-12-07T15:01:15;51.85;;;48.30;;
25231;SDS011;13176;51.140;6.290;2022-12-07T15:03:42;52.42;;;48.85;;
25231;SDS011;13176;51.140;6.290;2022-12-07T15:06:10;53.38;;;49.88;;
25231;SDS011;13176;51.140;6.290;2022-12-07T15:08:40;52.65;;;48.50;;
25231;SDS011;13176;51.140;6.290;2022-12-07T15:11:10;54.28;;;50.60;;
25231;SDS011;13176;51.140;6.290;2022-12-07T15:13:39;50.33;;;46.67;;
25231;SDS011;13176;51.140;6.290;2022-12-07T15:16:24;49.65;;;46.33;;
25231;SDS011;13176;51.140;6.290;2022-12-07T15:18:51;51.83;;;48.47;;
25231;SDS011;13176;51.140;6.290;2022-12-07T15:21:37;51.83;;;48.15;;
25231;SDS011;13176;51.140;6.290;2022-12-07T15:24:04;54.50;;;51.00;;
25231;SDS011;13176;51.140;6.290;2022-12-07T15:26:30;54.10;;;50.65;;
25231;SDS011;13176;51.140;6.290;2022-12-07T15:28:57;55.45;;;51.45;;
25231;SDS011;13176;51.140;6.290;2022-12-07T15:31:23;53.75;;;50.25;;
25231;SDS011;13176;51.140;6.290;2022-12-07T15:34:10;55.00;;;50.63;;
25231;SDS011;13176;51.140;6.290;2022-12-07T15:36:36;56.25;;;52.35;;
25231;SDS011;13176;51.140;6.290;2022-12-07T15:39:03;57.40;;;52.92;;
25231;SDS011;13176;51.140;6.290;2022-12-07T15:41:45;57.22;;;52.97;;
25231;SDS011;13176;51.140;6.290;2022-12-07T15:44:12;59.95;;;55.72;;
25231;SDS011;13176;51.140;6.290;2022-12-07T15:46:57;61.33;;;56.95;;
25231;SDS011;13176;51.140;6.290;2022-12-07T15:49:24;57.30;;;53.22;;
25231;SDS011;13176;51.140;6.290;2022-12-07T15:51:51;61.42;;;57.17;;
25231;SDS011;13176;51.140;6.290;2022-12-07T15:54:19;60.22;;;55.72;;
25231;SDS011;13176;51.140;6.290;2022-12-07T15:56:53;56.80;;;52.85;;
25231;SDS011;13176;51.140;6.290;2022-12-07T15:59:20;56.45;;;52.40;;
25231;SDS011;13176;51.140;6.290;2022-12-07T16:01:46;55.28;;;51.58;;
25231;SDS011;13176;51.140;6.290;2022-12-07T16:04:13;58.75;;;54.42;;
25231;SDS011;13176;51.140;6.290;2022-12-07T16:06:39;57.08;;;52.90;;
25231;SDS011;13176;51.140;6.290;2022-12-07T16:09:06;56.75;;;52.80;;
25231;SDS011;13176;51.140;6.290;2022-12-07T16:11:33;61.75;;;57.47;;
25231;SDS011;13176;51.140;6.290;2022-12-07T16:13:59;61.15;;;56.60;;
25231;SDS011;13176;51.140;6.290;2022-12-07T16:16:26;61.20;;;57.10;;
25231;SDS011;13176;51.140;6.290;2022-12-07T16:18:53;63.72;;;58.95;;
25231;SDS011;13176;51.140;6.290;2022-12-07T16:21:20;60.90;;;56.17;;
25231;SDS011;13176;51.140;6.290;2022-12-07T16:23:50;64.47;;;59.70;;
25231;SDS011;13176;51.140;6.290;2022-12-07T16:26:17;62.40;;;58.10;;
25231;SDS011;13176;51.140;6.290;2022-12-07T16:28:48;64.30;;;59.58;;
25231;SDS011;13176;51.140;6.290;2022-12-07T16:31:16;64.95;;;60.25;;
25231;SDS011;13176;51.140;6.290;2022-12-07T16:33:43;64.35;;;60.00;;
25231;SDS011;13176;51.140;6.290;2022-12-07T16:36:14;63.67;;;59.13;;
25231;SDS011;13176;51.140;6.290;2022-12-07T16:39:04;66.88;;;61.63;;
25231;SDS011;13176;51.140;6.290;2022-12-07T16:41:31;61.85;;;57.25;;
25231;SDS011;13176;51.140;6.290;2022-12-07T16:44:02;68.32;;;62.72;;
25231;SDS011;13176;51.140;6.290;2022-12-07T16:46:31;64.10;;;59.40;;
25231;SDS011;13176;51.140;6.290;2022-12-07T16:48:59;65.85;;;60.95;;
25231;SDS011;13176;51.140;6.290;2022-12-07T16:51:26;69.10;;;64.22;;
25231;SDS011;13176;51.140;6.290;2022-12-07T16:53:53;67.30;;;62.17;;
25231;SDS011;13176;51.140;6.290;2022-12-07T16:56:19;68.85;;;63.47;;
25231;SDS011;13176;51.140;6.290;2022-12-07T16:58:46;68.30;;;63.30;;
25231;SDS011;13176;51.140;6.290;2022-12-07T17:01:15;69.30;;;64.03;;
25231;SDS011;13176;51.140;6.290;2022-12-07T17:03:43;66.22;;;61.45;;
25231;SDS011;13176;51.140;6.290;2022-12-07T17:06:11;70.05;;;64.65;;
25231;SDS011;13176;51.140;6.290;2022-12-07T17:08:42;68.57;;;63.65;;
25231;SDS011;13176;51.140;6.290;2022-12-07T17:11:12;70.90;;;65.85;;